Time;durP1;ratioP1;P1;durP2;ratioP2;P2;SDS_P1;SDS_P2;PMS_P1;PMS_P2;Temp;Humidity;BMP_temperature;BMP_pressure;BME280_temperature;BME280_humidity;BME280_pressure;Samples;Min_cycle;Max_cycle;Signal;HPM_P1;HPM_P2
2021/10/02 00:44:44;;;;;;;1.98;1.88;;;14.50;99.90;;;;;;5040005;28;20743;-75
2021/10/02 00:47:17;;;;;;;1.70;1.60;;;14.50;99.90;;;;;;5036096;28;20318;-74
2021/10/02 00:49:45;;;;;;;1.90;1.80;;;14.40;99.90;;;;;;5037532;28;20215;-75
2021/10/02 00:52:14;;;;;;;1.88;1.77;;;14.50;99.90;;;;;;5042420;28;20231;-75
2021/10/02 00:54:42;;;;;;;1.75;1.65;;;14.50;99.90;;;;;;5033526;28;20782;-74
2021/10/02 00:57:09;;;;;;;1.95;1.80;;;14.50;99.90;;;;;;5040656;28;20284;-75
2021/10/02 00:59:36;;;;;;;2.13;1.95;;;14.50;99.90;;;;;;5034884;28;20219;-74
2021/10/02 01:02:10;;;;;;;2.10;1.90;;;14.50;99.90;;;;;;5039700;28;20734;-75
2021/10/02 01:04:51;;;;;;;2.85;2.38;;;14.50;99.90;;;;;;5028742;28;20281;-75
2021/10/02 01:07:25;;;;;;;2.00;1.90;;;14.50;99.90;;;;;;5035137;28;20806;-74
2021/10/02 01:10:11;;;;;;;1.65;1.55;;;14.50;99.90;;;;;;5030986;28;20279;-75
2021/10/02 01:12:49;;;;;;;3.58;2.20;;;14.60;99.90;;;;;;5030208;28;20219;-74
2021/10/02 01:15:26;;;;;;;2.33;1.80;;;14.50;99.90;;;;;;5032486;28;20252;-74
2021/10/02 01:17:59;;;;;;;2.80;2.05;;;14.50;99.90;;;;;;5029279;28;20674;-74
2021/10/02 01:20:44;;;;;;;1.88;1.77;;;14.50;99.90;;;;;;5033027;28;20235;-74
2021/10/02 01:23:41;;;;;;;2.20;1.60;;;14.40;99.90;;;;;;5030397;28;20219;-74
2021/10/02 01:26:26;;;;;;;2.00;1.85;;;14.30;99.90;;;;;;5033252;28;20250;-75
2021/10/02 01:28:58;;;;;;;1.90;1.80;;;14.30;99.90;;;;;;5037594;28;20269;-75
2021/10/02 01:31:30;;;;;;;1.70;1.60;;;14.30;99.90;;;;;;5033142;28;20640;-74
2021/10/02 01:34:03;;;;;;;1.55;1.45;;;14.40;99.90;;;;;;5035955;28;20231;-75
2021/10/02 01:36:42;;;;;;;1.65;1.55;;;14.30;99.90;;;;;;5034149;28;20292;-75
2021/10/02 01:47:34;;;;;;;2.72;1.80;;;14.20;99.90;;;;;;5036378;28;20229;-76
2021/10/02 01:50:02;;;;;;;1.80;1.70;;;14.10;99.90;;;;;;5033519;28;21503;-75
2021/10/02 01:52:33;;;;;;;1.90;1.80;;;14.00;99.90;;;;;;5033292;28;20238;-75
2021/10/02 01:55:02;;;;;;;3.03;1.63;;;14.00;99.90;;;;;;5034584;28;20237;-74
2021/10/02 01:57:37;;;;;;;1.83;1.60;;;14.00;99.90;;;;;;5035344;28;20218;-75
2021/10/02 02:00:09;;;;;;;1.75;1.65;;;14.00;99.90;;;;;;5035867;28;20276;-75
2021/10/02 02:02:38;;;;;;;1.73;1.63;;;14.00;99.90;;;;;;5033583;28;20273;-75
2021/10/02 02:05:07;;;;;;;1.60;1.50;;;14.00;99.90;;;;;;5036076;28;20225;-75
2021/10/02 02:07:36;;;;;;;2.00;1.70;;;14.00;99.90;;;;;;5036828;28;20292;-74
2021/10/02 02:10:06;;;;;;;1.85;1.52;;;14.00;99.90;;;;;;5036532;28;20349;-75
2021/10/02 02:12:34;;;;;;;1.70;1.60;;;14.00;99.90;;;;;;5034616;28;20757;-74
2021/10/02 02:15:04;;;;;;;1.92;1.83;;;14.10;99.90;;;;;;5012978;28;20309;-75
2021/10/02 02:17:33;;;;;;;1.70;1.58;;;14.10;99.90;;;;;;5034014;28;20277;-74
2021/10/02 02:20:03;;;;;;;1.55;1.45;;;14.20;99.90;;;;;;5038132;28;20218;-74
2021/10/02 02:22:30;;;;;;;1.20;1.20;;;14.20;99.90;;;;;;5034471;28;20230;-74
2021/10/02 02:24:58;;;;;;;2.78;1.52;;;14.20;99.90;;;;;;5031765;28;20224;-75
2021/10/02 02:27:25;;;;;;;1.73;1.58;;;14.20;99.90;;;;;;5040044;28;20218;-75
2021/10/02 02:29:52;;;;;;;1.30;1.20;;;14.20;99.90;;;;;;5034675;28;20227;-74
2021/10/02 02:32:20;;;;;;;1.63;1.48;;;14.20;99.90;;;;;;5031080;28;20226;-75
2021/10/02 02:34:49;;;;;;;1.50;1.40;;;14.20;99.90;;;;;;5034581;28;20713;-74
2021/10/02 02:37:17;;;;;;;1.42;1.33;;;14.20;99.90;;;;;;5032304;28;20227;-73
2021/10/02 02:39:44;;;;;;;1.77;1.33;;;14.20;99.90;;;;;;5030855;28;20215;-76
2021/10/02 02:42:11;;;;;;;1.48;1.38;;;14.20;99.90;;;;;;5034054;28;20803;-74
2021/10/02 02:44:38;;;;;;;1.67;1.50;;;14.20;99.90;;;;;;5054649;22;21249;-75
2021/10/02 02:47:17;;;;;;;1.65;1.55;;;14.20;99.90;;;;;;5077916;28;20226;-76
2021/10/02 02:49:51;;;;;;;1.60;1.50;;;14.20;99.90;;;;;;5079328;28;20225;-75
2021/10/02 02:52:21;;;;;;;1.77;1.50;;;14.20;99.90;;;;;;5078642;28;20233;-77
2021/10/02 02:54:53;;;;;;;1.90;1.77;;;14.10;99.90;;;;;;5076112;28;20573;-76
2021/10/02 02:57:23;;;;;;;1.95;1.85;;;14.10;99.90;;;;;;5075259;28;20237;-75
2021/10/02 03:00:00;;;;;;;1.75;1.65;;;14.00;99.90;;;;;;5078877;28;20272;-78
2021/10/02 03:02:27;;;;;;;1.85;1.65;;;13.90;99.90;;;;;;5073360;28;20707;-75
2021/10/02 03:05:00;;;;;;;2.85;2.20;;;13.80;99.90;;;;;;5071266;28;20225;-74
2021/10/02 03:07:28;;;;;;;2.13;2.00;;;13.60;99.90;;;;;;5073680;28;20324;-75
2021/10/02 03:09:56;;;;;;;1.98;1.88;;;13.50;99.90;;;;;;5076627;28;20218;-76
2021/10/02 03:12:30;;;;;;;2.08;1.98;;;13.30;99.90;;;;;;5075154;28;20218;-75
2021/10/02 03:14:59;;;;;;;2.15;2.00;;;13.30;99.90;;;;;;5072960;28;20784;-79
2021/10/02 03:17:28;;;;;;;1.77;1.65;;;13.20;99.90;;;;;;5076904;28;20731;-76
2021/10/02 03:19:58;;;;;;;2.40;2.20;;;13.20;99.90;;;;;;5076305;28;20322;-76
2021/10/02 03:22:28;;;;;;;2.13;1.95;;;13.20;99.90;;;;;;5076848;28;20218;-76
2021/10/02 03:24:57;;;;;;;2.30;2.10;;;13.20;99.90;;;;;;5077300;28;20266;-78
2021/10/02 03:27:27;;;;;;;2.50;2.13;;;13.10;99.90;;;;;;5072927;28;20276;-75
2021/10/02 03:29:56;;;;;;;1.90;1.80;;;13.10;99.90;;;;;;5076342;28;20218;-76
2021/10/02 03:32:24;;;;;;;2.20;2.00;;;13.10;99.90;;;;;;5076521;28;20229;-76
2021/10/02 03:34:53;;;;;;;1.88;1.77;;;13.20;99.90;;;;;;5078137;28;20299;-77
2021/10/02 03:37:21;;;;;;;2.33;2.10;;;13.20;99.90;;;;;;5074009;28;20571;-75
2021/10/02 03:39:49;;;;;;;1.75;1.65;;;13.20;99.90;;;;;;5075620;28;20262;-76
2021/10/02 03:42:18;;;;;;;1.83;1.73;;;13.30;99.90;;;;;;5078030;28;20611;-77
2021/10/02 03:44:47;;;;;;;1.90;1.80;;;13.30;99.90;;;;;;5075422;28;20651;-77
2021/10/02 03:47:16;;;;;;;2.72;2.10;;;13.30;99.90;;;;;;5074656;28;20290;-79
2021/10/02 03:49:44;;;;;;;1.60;1.50;;;13.30;99.90;;;;;;5078562;28;20229;-77
2021/10/02 03:52:12;;;;;;;1.73;1.63;;;13.30;99.90;;;;;;5078103;28;20302;-76
2021/10/02 03:54:41;;;;;;;1.85;1.75;;;13.30;99.90;;;;;;5074589;28;20218;-78
2021/10/02 03:57:08;;;;;;;1.67;1.58;;;13.30;99.90;;;;;;5077268;28;20932;-75
2021/10/02 03:59:35;;;;;;;2.10;1.83;;;13.30;99.90;;;;;;5077961;28;20213;-76
2021/10/02 04:02:02;;;;;;;2.42;2.00;;;13.40;99.90;;;;;;5075488;28;20270;-76
2021/10/02 04:04:29;;;;;;;1.80;1.70;;;13.40;99.90;;;;;;5074354;28;20225;-78
2021/10/02 04:06:56;;;;;;;1.83;1.73;;;13.40;99.90;;;;;;5073572;28;20286;-79
2021/10/02 04:09:24;;;;;;;2.03;1.85;;;13.40;99.90;;;;;;5074631;28;20277;-78
2021/10/02 04:11:53;;;;;;;2.17;1.90;;;13.40;99.90;;;;;;5078151;28;20226;-76
2021/10/02 04:14:20;;;;;;;1.67;1.58;;;13.40;99.90;;;;;;5074357;28;20271;-76
2021/10/02 04:16:47;;;;;;;1.80;1.70;;;13.40;99.90;;;;;;5074727;28;20210;-78
2021/10/02 04:19:14;;;;;;;2.17;1.48;;;13.40;99.90;;;;;;5073967;28;20262;-79
2021/10/02 04:21:41;;;;;;;1.67;1.58;;;13.40;99.90;;;;;;5077336;28;20220;-76
2021/10/02 04:24:09;;;;;;;1.80;1.70;;;13.40;99.90;;;;;;5073289;28;20700;-80
2021/10/02 04:26:36;;;;;;;2.90;1.60;;;13.40;99.90;;;;;;5076981;28;20225;-75
2021/10/02 04:29:04;;;;;;;1.77;1.67;;;13.40;99.90;;;;;;5070776;28;20285;-76
2021/10/02 04:31:31;;;;;;;2.10;1.90;;;13.40;99.90;;;;;;5076220;28;20301;-75
2021/10/02 04:33:58;;;;;;;2.05;1.85;;;13.40;99.90;;;;;;5076174;28;20653;-79
2021/10/02 04:36:25;;;;;;;2.10;1.90;;;13.40;99.90;;;;;;5074722;28;20291;-75
2021/10/02 04:38:53;;;;;;;1.90;1.80;;;13.40;99.90;;;;;;5073117;28;20643;-75
2021/10/02 04:41:21;;;;;;;1.80;1.70;;;13.40;99.90;;;;;;5076452;28;20661;-78
2021/10/02 04:43:48;;;;;;;1.75;1.65;;;13.40;99.90;;;;;;5078659;28;20225;-75
2021/10/02 04:46:18;;;;;;;1.70;1.60;;;13.40;99.90;;;;;;5074185;28;20529;-78
2021/10/02 04:48:46;;;;;;;2.05;1.73;;;13.40;99.90;;;;;;5076221;28;20233;-77
2021/10/02 04:51:14;;;;;;;1.67;1.58;;;13.40;99.90;;;;;;5076968;28;20641;-77
2021/10/02 04:53:41;;;;;;;2.35;1.85;;;13.40;99.90;;;;;;5078159;28;20298;-76
2021/10/02 04:56:10;;;;;;;1.77;1.55;;;13.30;99.90;;;;;;5079170;28;20221;-76
2021/10/02 04:58:37;;;;;;;1.50;1.40;;;13.30;99.90;;;;;;5079198;28;20305;-76
2021/10/02 05:01:06;;;;;;;1.67;1.58;;;13.30;99.90;;;;;;5076401;28;20233;-78
2021/10/02 05:03:34;;;;;;;2.90;1.90;;;13.20;99.90;;;;;;5074398;28;20244;-79
2021/10/02 05:06:03;;;;;;;2.97;1.98;;;13.20;99.90;;;;;;5075082;28;20228;-78
2021/10/02 05:08:30;;;;;;;1.98;1.85;;;13.20;99.90;;;;;;5083100;28;20304;-77
2021/10/02 05:10:58;;;;;;;1.95;1.85;;;13.20;99.90;;;;;;5083361;28;20286;-78
2021/10/02 05:13:25;;;;;;;2.10;1.80;;;13.20;99.90;;;;;;5080392;28;20294;-79
2021/10/02 05:15:52;;;;;;;1.88;1.77;;;13.20;99.90;;;;;;5077343;28;20221;-77
2021/10/02 05:18:20;;;;;;;1.90;1.80;;;13.20;99.90;;;;;;5081480;28;20226;-78
2021/10/02 05:20:48;;;;;;;2.15;1.70;;;13.20;99.90;;;;;;5082208;28;20229;-75
2021/10/02 05:23:15;;;;;;;2.03;1.90;;;13.20;99.90;;;;;;5077470;28;20770;-76
2021/10/02 05:25:42;;;;;;;1.73;1.63;;;13.20;99.90;;;;;;5078180;28;20650;-79
2021/10/02 05:28:09;;;;;;;1.60;1.50;;;13.30;99.90;;;;;;5079340;28;20415;-80
2021/10/02 05:30:37;;;;;;;1.70;1.60;;;13.30;99.90;;;;;;5076014;28;20283;-77
2021/10/02 05:33:04;;;;;;;2.40;2.20;;;13.40;99.90;;;;;;5074856;28;20222;-77
2021/10/02 05:35:31;;;;;;;2.38;2.17;;;13.30;99.90;;;;;;5071997;28;20225;-79
2021/10/02 05:38:00;;;;;;;1.95;1.85;;;13.30;99.90;;;;;;5076808;28;20286;-77
2021/10/02 05:40:28;;;;;;;2.17;1.98;;;13.30;99.90;;;;;;5076995;28;20231;-77
2021/10/02 05:42:55;;;;;;;2.33;1.92;;;13.30;99.90;;;;;;5075810;28;20788;-78
2021/10/02 05:45:22;;;;;;;2.22;2.03;;;13.30;99.90;;;;;;5078023;28;20233;-76
2021/10/02 05:47:49;;;;;;;1.80;1.70;;;13.30;99.90;;;;;;5077171;28;20221;-84
2021/10/02 05:50:16;;;;;;;1.80;1.70;;;13.40;99.90;;;;;;5077644;28;20213;-76
2021/10/02 05:52:43;;;;;;;2.15;1.95;;;13.40;99.90;;;;;;5080429;28;20425;-80
2021/10/02 05:55:12;;;;;;;2.42;1.98;;;13.40;99.90;;;;;;5080972;28;20290;-78
2021/10/02 05:57:39;;;;;;;1.50;1.40;;;13.50;99.90;;;;;;5083011;28;20305;-76
2021/10/02 06:00:08;;;;;;;2.08;1.88;;;13.60;99.90;;;;;;5083034;28;20213;-78
2021/10/02 06:02:35;;;;;;;2.17;1.60;;;13.60;99.90;;;;;;5085006;28;20233;-77
2021/10/02 06:05:02;;;;;;;1.52;1.42;;;13.60;99.90;;;;;;5079134;28;20218;-76
2021/10/02 06:07:29;;;;;;;2.03;1.80;;;13.70;99.90;;;;;;5082086;28;20294;-75
2021/10/02 06:09:56;;;;;;;1.95;1.85;;;13.70;99.90;;;;;;5079869;28;20286;-76
2021/10/02 06:12:25;;;;;;;1.75;1.65;;;13.80;99.90;;;;;;5087337;28;20221;-76
2021/10/02 06:14:52;;;;;;;2.40;2.20;;;13.90;99.90;;;;;;5080778;28;20543;-76
2021/10/02 06:17:19;;;;;;;2.63;1.98;;;13.90;99.90;;;;;;5082129;28;20695;-77
2021/10/02 06:19:46;;;;;;;2.42;2.22;;;14.00;99.90;;;;;;5082993;28;20232;-79
2021/10/02 06:22:13;;;;;;;1.90;1.80;;;14.10;99.90;;;;;;5083171;28;20278;-77
2021/10/02 06:24:40;;;;;;;1.95;1.85;;;14.10;99.90;;;;;;5082765;28;20277;-76
2021/10/02 06:27:08;;;;;;;2.25;2.05;;;14.20;99.90;;;;;;5083074;28;20225;-76
2021/10/02 06:29:37;;;;;;;2.40;2.20;;;14.20;99.90;;;;;;5084012;28;20224;-76
2021/10/02 06:32:04;;;;;;;2.60;2.40;;;14.30;99.90;;;;;;5079971;28;20596;-76
2021/10/02 06:34:32;;;;;;;2.30;2.20;;;14.30;99.90;;;;;;5055895;28;20221;-77
2021/10/02 06:36:59;;;;;;;2.67;2.45;;;14.40;99.90;;;;;;5082819;28;20275;-75
2021/10/02 06:39:26;;;;;;;2.40;2.20;;;14.50;99.90;;;;;;5080938;28;20229;-76
2021/10/02 06:41:53;;;;;;;2.17;2.08;;;14.70;99.90;;;;;;5081016;28;20225;-76
2021/10/02 06:44:20;;;;;;;2.03;1.92;;;14.80;99.90;;;;;;5080620;28;20796;-75
2021/10/02 06:46:48;;;;;;;3.10;2.50;;;15.00;99.90;;;;;;5080293;28;20255;-76
2021/10/02 06:49:15;;;;;;;3.90;2.45;;;15.10;99.90;;;;;;5083227;28;20249;-77
2021/10/02 06:51:42;;;;;;;2.40;2.20;;;15.20;99.90;;;;;;5080912;28;20458;-76
2021/10/02 06:54:10;;;;;;;2.10;2.00;;;15.30;99.90;;;;;;5082408;28;20247;-77
2021/10/02 06:56:37;;;;;;;2.10;2.00;;;15.40;99.90;;;;;;5077717;28;20229;-81
2021/10/02 06:59:04;;;;;;;2.13;2.03;;;15.40;99.90;;;;;;5083362;28;20233;-76
2021/10/02 07:01:31;;;;;;;2.97;2.70;;;15.40;99.90;;;;;;5082348;28;20218;-78
2021/10/02 07:04:00;;;;;;;2.63;2.42;;;15.50;99.90;;;;;;5078672;28;20230;-78
2021/10/02 07:06:27;;;;;;;3.78;2.58;;;15.50;99.90;;;;;;5080654;28;20290;-80
2021/10/02 07:08:54;;;;;;;2.42;2.25;;;15.60;99.90;;;;;;5082606;28;20282;-77
2021/10/02 07:11:21;;;;;;;3.28;2.25;;;15.80;99.90;;;;;;5082554;28;20221;-75
2021/10/02 07:13:48;;;;;;;2.67;2.47;;;16.20;99.90;;;;;;5081665;28;20218;-78
2021/10/02 07:16:15;;;;;;;2.95;2.65;;;16.60;99.90;;;;;;5076615;28;20230;-76
2021/10/02 07:18:42;;;;;;;5.78;2.50;;;16.70;99.90;;;;;;5082566;28;20600;-77
2021/10/02 07:21:11;;;;;;;2.75;2.55;;;16.60;99.90;;;;;;5078006;28;20248;-78
2021/10/02 07:23:38;;;;;;;2.55;2.35;;;16.60;99.90;;;;;;5080639;28;20278;-77
2021/10/02 07:26:06;;;;;;;2.40;2.30;;;16.60;99.90;;;;;;5079564;28;20698;-77
2021/10/02 07:28:33;;;;;;;2.60;2.40;;;16.70;99.90;;;;;;5079967;28;20794;-78
2021/10/02 07:31:01;;;;;;;2.65;2.30;;;16.90;99.90;;;;;;5077838;28;20749;-78
2021/10/02 07:33:28;;;;;;;2.17;2.05;;;17.20;99.90;;;;;;5076878;28;20228;-76
2021/10/02 07:35:55;;;;;;;2.88;2.60;;;17.60;99.90;;;;;;5074835;28;20244;-75
2021/10/02 07:38:23;;;;;;;2.53;1.95;;;17.90;99.90;;;;;;5079456;28;20308;-77
2021/10/02 07:40:51;;;;;;;2.80;2.58;;;18.00;99.90;;;;;;5079949;28;20722;-77
2021/10/02 07:43:21;;;;;;;2.38;2.17;;;18.20;99.90;;;;;;5081341;28;20279;-76
2021/10/02 07:45:50;;;;;;;2.10;2.00;;;18.50;99.90;;;;;;5078908;28;20225;-76
2021/10/02 07:48:24;;;;;;;3.92;2.33;;;18.90;99.90;;;;;;5078852;28;20250;-76
2021/10/02 07:50:53;;;;;;;2.50;2.30;;;19.20;99.90;;;;;;5079668;28;20295;-75
2021/10/02 07:53:20;;;;;;;2.70;2.50;;;19.40;99.90;;;;;;5076177;28;20221;-74
2021/10/02 07:55:51;;;;;;;3.65;2.20;;;19.40;99.90;;;;;;5077812;28;20435;-76
2021/10/02 07:58:21;;;;;;;2.53;2.33;;;19.40;99.90;;;;;;5092247;28;20229;-76
2021/10/02 08:00:49;;;;;;;2.90;2.40;;;19.60;99.90;;;;;;5051721;28;20230;-74
2021/10/02 08:03:20;;;;;;;2.78;2.50;;;19.80;99.90;;;;;;5078207;28;20590;-76
2021/10/02 08:05:48;;;;;;;2.30;2.10;;;20.00;99.90;;;;;;5075464;28;20324;-75
2021/10/02 08:08:16;;;;;;;3.97;2.42;;;20.30;99.90;;;;;;5078181;28;20217;-75
2021/10/02 08:10:44;;;;;;;2.90;2.70;;;20.60;99.90;;;;;;5076628;28;20502;-76
2021/10/02 08:13:13;;;;;;;3.28;2.08;;;20.90;99.90;;;;;;5077211;28;20410;-76
2021/10/02 08:15:42;;;;;;;3.10;2.47;;;20.90;99.90;;;;;;5075002;28;20663;-76
2021/10/02 08:18:10;;;;;;;2.72;2.53;;;20.90;99.90;;;;;;5078713;28;20233;-75
2021/10/02 08:20:38;;;;;;;2.47;2.28;;;21.00;99.90;;;;;;5081235;28;20240;-76
2021/10/02 08:23:06;;;;;;;2.47;2.28;;;21.10;99.90;;;;;;5079970;28;20274;-76
2021/10/02 08:25:35;;;;;;;2.45;2.25;;;21.10;99.90;;;;;;5079188;28;20687;-75
2021/10/02 08:28:04;;;;;;;2.60;2.40;;;21.20;99.90;;;;;;5076029;28;20761;-76
2021/10/02 08:30:33;;;;;;;3.13;2.20;;;21.40;99.90;;;;;;5080015;28;20233;-76
2021/10/02 08:33:00;;;;;;;2.17;2.00;;;21.50;99.90;;;;;;5078069;28;20217;-76
2021/10/02 08:35:28;;;;;;;2.83;2.30;;;21.60;99.90;;;;;;5081748;28;20229;-76
2021/10/02 08:37:55;;;;;;;2.72;2.10;;;21.70;99.90;;;;;;5080290;28;20233;-74
2021/10/02 08:40:22;;;;;;;3.33;3.00;;;21.50;99.90;;;;;;5079596;28;20221;-75
2021/10/02 08:42:50;;;;;;;3.47;2.78;;;21.30;99.90;;;;;;5082983;28;20255;-74
2021/10/02 08:45:17;;;;;;;2.63;2.42;;;21.10;99.90;;;;;;5082133;28;20233;-75
2021/10/02 08:47:47;;;;;;;2.92;2.70;;;20.90;99.90;;;;;;5050992;22;20225;-75
2021/10/02 08:50:17;;;;;;;3.60;2.47;;;20.60;99.90;;;;;;5076336;28;20221;-76
2021/10/02 08:52:45;;;;;;;3.50;2.70;;;20.50;99.90;;;;;;5079682;28;20230;-76
2021/10/02 08:55:13;;;;;;;3.17;2.38;;;20.30;99.90;;;;;;5079855;28;20225;-76
2021/10/02 08:57:42;;;;;;;2.45;2.25;;;20.50;99.90;;;;;;5065689;28;20241;-76
2021/10/02 09:00:13;;;;;;;2.55;2.35;;;20.60;99.90;;;;;;5056955;28;20230;-76
2021/10/02 09:02:41;;;;;;;2.63;2.42;;;20.80;99.90;;;;;;5048639;28;20276;-76
2021/10/02 09:05:12;;;;;;;2.92;2.70;;;20.80;99.90;;;;;;5050568;28;20276;-76
2021/10/02 09:07:39;;;;;;;2.50;2.30;;;21.00;99.90;;;;;;5054202;28;20234;-75
2021/10/02 09:10:09;;;;;;;3.00;2.70;;;21.20;99.90;;;;;;5058232;28;20221;-76
2021/10/02 09:12:38;;;;;;;4.20;2.40;;;21.40;99.90;;;;;;5053639;28;20263;-76
2021/10/02 09:15:07;;;;;;;2.78;2.58;;;21.50;99.90;;;;;;5053798;28;20284;-74
2021/10/02 09:17:35;;;;;;;2.70;2.25;;;21.60;99.90;;;;;;5056172;28;20234;-76
2021/10/02 09:20:02;;;;;;;2.88;2.58;;;21.60;99.90;;;;;;5054096;28;20214;-76
2021/10/02 09:22:31;;;;;;;2.95;2.38;;;21.70;99.90;;;;;;5059211;28;20678;-76
2021/10/02 09:25:01;;;;;;;3.35;2.33;;;21.50;99.90;;;;;;5055752;28;20291;-76
2021/10/02 09:27:30;;;;;;;3.75;2.25;;;21.40;99.90;;;;;;5053915;28;20751;-76
2021/10/02 09:29:59;;;;;;;3.65;2.70;;;21.50;99.90;;;;;;5055174;28;20283;-75
2021/10/02 09:32:29;;;;;;;3.53;2.60;;;21.50;99.90;;;;;;5047908;28;20250;-76
2021/10/02 09:34:58;;;;;;;2.40;2.20;;;21.60;99.90;;;;;;5055001;28;20419;-75
2021/10/02 09:37:28;;;;;;;2.40;2.10;;;21.60;99.90;;;;;;5050013;28;20716;-76
2021/10/02 09:40:01;;;;;;;3.10;2.80;;;21.50;99.90;;;;;;5057228;28;20321;-74
2021/10/02 09:42:34;;;;;;;2.58;2.28;;;21.40;99.90;;;;;;5057197;28;20236;-76
2021/10/02 09:45:05;;;;;;;2.72;2.53;;;21.40;99.90;;;;;;5053075;28;20296;-76
2021/10/02 09:47:32;;;;;;;2.47;2.28;;;21.70;99.90;;;;;;5052777;28;20285;-74
2021/10/02 09:49:59;;;;;;;2.97;2.40;;;22.00;99.90;;;;;;5050167;28;20225;-75
2021/10/02 09:52:37;;;;;;;2.92;2.72;;;22.20;99.90;;;;;;5051785;28;20234;-76
2021/10/02 09:55:22;;;;;;;3.25;2.70;;;22.10;99.90;;;;;;5053389;28;20222;-76
2021/10/02 09:57:51;;;;;;;2.83;2.40;;;22.00;99.90;;;;;;5051532;28;20602;-77
2021/10/02 10:00:21;;;;;;;2.65;2.45;;;22.30;99.90;;;;;;5051180;28;20231;-75
2021/10/02 10:02:48;;;;;;;2.40;2.20;;;22.80;99.90;;;;;;5058671;28;20238;-76
2021/10/02 10:05:15;;;;;;;2.30;2.10;;;23.10;99.90;;;;;;5060096;28;20222;-75
2021/10/02 10:07:54;;;;;;;2.55;2.30;;;23.30;99.90;;;;;;5059066;28;20234;-75
2021/10/02 10:10:23;;;;;;;2.55;2.28;;;23.20;99.90;;;;;;5054082;28;20766;-76
2021/10/02 10:12:51;;;;;;;3.28;2.65;;;23.20;99.90;;;;;;5056334;28;20277;-75
2021/10/02 10:15:34;;;;;;;3.53;2.70;;;23.20;99.90;;;;;;5055725;28;20272;-75
2021/10/02 10:18:01;;;;;;;5.75;3.00;;;23.30;99.90;;;;;;5060105;28;20229;-76
2021/10/02 10:20:50;;;;;;;2.85;2.58;;;23.10;99.90;;;;;;5060263;28;20295;-75
2021/10/02 10:23:27;;;;;;;2.38;2.17;;;23.00;99.90;;;;;;5059445;28;20221;-75
2021/10/02 10:25:57;;;;;;;4.03;2.50;;;23.20;99.90;;;;;;5061768;28;20279;-76
2021/10/02 10:28:26;;;;;;;3.38;2.95;;;23.20;99.90;;;;;;5056430;28;20222;-75
2021/10/02 10:30:54;;;;;;;3.70;3.33;;;23.20;99.90;;;;;;5061548;28;20708;-74
2021/10/02 10:33:22;;;;;;;3.65;3.15;;;23.30;99.90;;;;;;5061919;28;20692;-76
2021/10/02 10:35:51;;;;;;;3.97;3.38;;;22.90;99.90;;;;;;5034066;28;20313;-76
2021/10/02 10:38:22;;;;;;;2.92;2.72;;;23.00;99.90;;;;;;5048482;28;20222;-75
2021/10/02 10:40:50;;;;;;;3.30;3.00;;;23.00;99.90;;;;;;5060067;28;20232;-76
2021/10/02 10:43:19;;;;;;;2.60;2.40;;;23.00;99.90;;;;;;5059356;28;20226;-74
2021/10/02 10:45:47;;;;;;;3.33;2.28;;;23.00;99.90;;;;;;5060195;28;20238;-75
2021/10/02 10:48:15;;;;;;;2.28;2.08;;;23.30;99.90;;;;;;5058008;28;20719;-75
2021/10/02 10:50:44;;;;;;;2.17;1.95;;;23.70;99.90;;;;;;5059128;28;20287;-74
2021/10/02 10:53:12;;;;;;;3.50;3.08;;;23.70;99.90;;;;;;5058310;28;20222;-76
2021/10/02 10:55:49;;;;;;;3.90;3.50;;;23.60;99.90;;;;;;5053864;28;20289;-76
2021/10/02 10:58:27;;;;;;;3.00;2.55;;;23.40;99.90;;;;;;5060353;28;20721;-75
2021/10/02 11:00:55;;;;;;;4.68;2.35;;;23.40;99.90;;;;;;5056112;28;20668;-74
2021/10/02 11:03:36;;;;;;;3.00;2.60;;;23.60;99.90;;;;;;5056536;28;20218;-76
2021/10/02 11:06:04;;;;;;;4.15;2.80;;;23.60;99.90;;;;;;5059007;28;20650;-75
2021/10/02 11:08:58;;;;;;;3.35;2.38;;;23.50;99.90;;;;;;5055564;28;20237;-75
2021/10/02 11:11:56;;;;;;;2.75;2.50;;;23.60;99.90;;;;;;5057116;28;20234;-76
2021/10/02 11:14:41;;;;;;;4.10;2.42;;;23.70;99.90;;;;;;5053697;28;20724;-75
2021/10/02 11:17:08;;;;;;;5.47;2.60;;;23.50;99.90;;;;;;5055757;28;20755;-75
2021/10/02 11:19:37;;;;;;;3.20;2.78;;;23.40;99.90;;;;;;5062321;28;20229;-76
2021/10/02 11:23:00;;;;;;;2.97;2.55;;;23.40;99.90;;;;;;5055352;28;20639;-75
2021/10/02 11:25:28;;;;;;;3.05;2.60;;;23.30;99.90;;;;;;4955757;28;20241;-75
2021/10/02 11:27:55;;;;;;;2.50;2.30;;;23.40;99.90;;;;;;5039644;28;20244;-74
2021/10/02 11:30:23;;;;;;;3.47;3.03;;;23.30;99.90;;;;;;5058175;28;20218;-75
2021/10/02 11:32:50;;;;;;;3.80;2.75;;;23.40;99.90;;;;;;5058622;28;20314;-76
2021/10/02 11:35:34;;;;;;;4.18;2.55;;;23.30;99.90;;;;;;5054263;28;20264;-75
2021/10/02 11:38:05;;;;;;;4.03;2.83;;;23.10;99.90;;;;;;5058156;28;20231;-75
2021/10/02 11:40:51;;;;;;;4.82;2.42;;;23.00;99.90;;;;;;5057358;28;20229;-76
2021/10/02 11:43:30;;;;;;;3.15;2.30;;;22.90;99.90;;;;;;5057017;28;20283;-75
2021/10/02 11:46:05;;;;;;;2.60;2.40;;;23.20;99.90;;;;;;5054913;28;20607;-75
2021/10/02 11:48:39;;;;;;;4.25;2.92;;;23.10;99.90;;;;;;5031469;28;20233;-76
2021/10/02 11:51:18;;;;;;;4.45;2.50;;;22.70;99.90;;;;;;5060182;28;20257;-75
2021/10/02 11:53:47;;;;;;;2.40;2.20;;;22.40;99.90;;;;;;5055877;28;20221;-75
2021/10/02 11:56:19;;;;;;;5.13;2.60;;;22.50;99.90;;;;;;5059376;28;20656;-73
2021/10/02 11:58:46;;;;;;;2.55;2.30;;;22.90;99.90;;;;;;5050533;28;20234;-75
2021/10/02 12:01:20;;;;;;;2.50;2.30;;;23.20;99.90;;;;;;5054338;28;20233;-76
2021/10/02 12:03:48;;;;;;;3.55;2.65;;;23.20;99.90;;;;;;5051303;28;20219;-75
2021/10/02 12:06:20;;;;;;;2.88;2.17;;;23.30;99.90;;;;;;5052141;28;20391;-75
2021/10/02 12:08:51;;;;;;;3.08;2.35;;;23.20;99.90;;;;;;5050443;28;20231;-76
2021/10/02 12:11:18;;;;;;;3.33;2.47;;;23.30;99.90;;;;;;5051133;28;20336;-76
2021/10/02 12:13:49;;;;;;;3.63;1.80;;;23.20;99.90;;;;;;5058259;28;20712;-76
2021/10/02 12:16:20;;;;;;;2.40;2.13;;;23.30;99.90;;;;;;5048465;28;20218;-75
2021/10/02 12:18:57;;;;;;;1.85;1.73;;;23.70;99.90;;;;;;5054098;28;20508;-75
2021/10/02 12:21:32;;;;;;;2.10;1.90;;;23.90;99.90;;;;;;5048166;28;20225;-76
2021/10/02 12:24:02;;;;;;;3.00;2.45;;;24.30;99.90;;;;;;5054296;28;20229;-76
2021/10/02 12:26:30;;;;;;;1.95;1.70;;;24.40;99.90;;;;;;5049816;28;20281;-76
2021/10/02 12:29:03;;;;;;;2.25;2.05;;;24.30;99.90;;;;;;5055025;28;20238;-75
2021/10/02 12:31:53;;;;;;;4.28;2.95;;;24.20;99.90;;;;;;5053719;28;20242;-76
2021/10/02 12:34:21;;;;;;;3.90;3.60;;;24.10;99.90;;;;;;5047794;28;20279;-74
2021/10/02 12:36:52;;;;;;;6.93;3.53;;;24.10;99.90;;;;;;5046641;28;20226;-76
2021/10/02 12:39:24;;;;;;;3.85;3.22;;;24.10;99.90;;;;;;5048069;28;20241;-75
2021/10/02 12:41:51;;;;;;;3.10;2.80;;;24.00;99.90;;;;;;5058414;28;20662;-75
2021/10/02 12:44:24;;;;;;;3.05;2.75;;;24.10;99.90;;;;;;5059312;28;20222;-75
2021/10/02 12:46:55;;;;;;;2.83;2.58;;;24.20;99.90;;;;;;5058405;28;20778;-76
2021/10/02 12:49:23;;;;;;;4.90;4.30;;;24.30;99.90;;;;;;5055281;28;20726;-74
2021/10/02 12:51:50;;;;;;;6.05;5.15;;;24.00;99.90;;;;;;5059055;28;20245;-76
2021/10/02 12:54:23;;;;;;;5.70;4.15;;;23.50;99.90;;;;;;5059198;28;20229;-76
2021/10/02 12:57:06;;;;;;;5.95;4.45;;;23.20;99.90;;;;;;5053211;28;20658;-76
2021/10/02 12:59:42;;;;;;;7.20;4.78;;;22.90;99.90;;;;;;5019626;28;20715;-76
2021/10/02 13:02:11;;;;;;;5.88;4.45;;;22.90;99.90;;;;;;5051267;28;20283;-76
2021/10/02 13:04:38;;;;;;;6.93;4.25;;;23.00;99.90;;;;;;5058514;28;20355;-76
2021/10/02 13:07:06;;;;;;;5.97;4.35;;;23.20;99.90;;;;;;5058222;28;20238;-75
2021/10/02 13:10:05;;;;;;;7.40;4.28;;;23.40;99.90;;;;;;5055127;28;20562;-77
2021/10/02 13:12:34;;;;;;;4.20;3.80;;;23.50;99.90;;;;;;5054516;28;20230;-76
2021/10/02 13:15:03;;;;;;;6.68;4.05;;;23.50;99.90;;;;;;5053391;28;21786;-76
2021/10/02 13:17:32;;;;;;;7.82;4.80;;;23.40;99.90;;;;;;5056504;28;20230;-75
2021/10/02 13:20:11;;;;;;;5.38;3.88;;;23.30;99.90;;;;;;5057649;28;20296;-75
2021/10/02 13:22:41;;;;;;;4.35;3.95;;;23.10;99.90;;;;;;5052518;28;20261;-76
2021/10/02 13:25:11;;;;;;;4.70;3.58;;;23.00;99.90;;;;;;5054343;28;20279;-74
2021/10/02 13:27:41;;;;;;;5.07;4.55;;;23.10;99.90;;;;;;5058757;28;20291;-76
2021/10/02 13:30:12;;;;;;;6.30;3.60;;;23.20;99.90;;;;;;5055022;28;20233;-75
2021/10/02 13:32:41;;;;;;;3.58;3.08;;;23.30;99.90;;;;;;5044177;28;20234;-75
2021/10/02 13:35:10;;;;;;;3.67;3.38;;;23.40;99.90;;;;;;5061501;28;20647;-75
2021/10/02 13:37:45;;;;;;;5.05;4.53;;;23.40;99.90;;;;;;5058177;28;20235;-75
2021/10/02 13:40:20;;;;;;;3.20;2.90;;;23.00;99.90;;;;;;5060882;28;20232;-75
2021/10/02 13:42:48;;;;;;;4.57;3.30;;;23.10;99.90;;;;;;5061053;28;20226;-76
2021/10/02 13:45:16;;;;;;;6.47;4.57;;;23.20;99.90;;;;;;5057459;28;20222;-75
2021/10/02 13:47:55;;;;;;;3.67;3.38;;;23.20;99.90;;;;;;5060884;28;20700;-75
2021/10/02 13:50:22;;;;;;;6.50;4.30;;;23.20;99.90;;;;;;5059695;28;20256;-76
2021/10/02 13:52:50;;;;;;;4.70;3.03;;;23.00;99.90;;;;;;5059081;28;20305;-76
2021/10/02 13:55:17;;;;;;;3.65;3.15;;;23.00;99.90;;;;;;5063001;28;20218;-75